sensor_id;sensor_type;location;lat;lon;timestamp;noise_LAeq;noise_LA_min;noise_LA_max;noise_LA01;noise_LA95
83034;Laerm;72848;52.216;5.616;2023-09-19T00:00:50;31.01;28.09;43.54;;
83034;Laerm;72848;52.216;5.616;2023-09-19T00:03:19;29.16;28.17;34.82;;
83034;Laerm;72848;52.216;5.616;2023-09-19T00:05:44;29.32;28.22;38.98;;
83034;Laerm;72848;52.216;5.616;2023-09-19T00:08:10;30.11;28.10;43.53;;
83034;Laerm;72848;52.216;5.616;2023-09-19T00:10:36;29.26;28.16;43.49;;
83034;Laerm;72848;52.216;5.616;2023-09-19T00:13:02;29.32;28.20;39.72;;
83034;Laerm;72848;52.216;5.616;2023-09-19T00:15:28;30.67;28.19;44.13;;
83034;Laerm;72848;52.216;5.616;2023-09-19T00:17:54;30.03;28.17;42.32;;
83034;Laerm;72848;52.216;5.616;2023-09-19T00:20:23;29.09;28.18;36.11;;
83034;Laerm;72848;52.216;5.616;2023-09-19T00:22:49;30.27;28.22;40.52;;
83034;Laerm;72848;52.216;5.616;2023-09-19T00:25:15;29.46;28.28;40.44;;
83034;Laerm;72848;52.216;5.616;2023-09-19T00:27:41;30.30;28.15;44.35;;
83034;Laerm;72848;52.216;5.616;2023-09-19T00:30:07;29.21;28.23;37.33;;
83034;Laerm;72848;52.216;5.616;2023-09-19T00:32:33;29.05;28.11;39.22;;
83034;Laerm;72848;52.216;5.616;2023-09-19T00:35:00;29.32;28.19;36.60;;
83034;Laerm;72848;52.216;5.616;2023-09-19T00:37:29;29.25;28.20;39.77;;
83034;Laerm;72848;52.216;5.616;2023-09-19T00:39:55;30.33;28.13;45.76;;
83034;Laerm;72848;52.216;5.616;2023-09-19T00:42:21;29.19;28.10;38.90;;
83034;Laerm;72848;52.216;5.616;2023-09-19T00:44:47;29.33;28.13;41.58;;
83034;Laerm;72848;52.216;5.616;2023-09-19T00:47:12;29.19;28.13;38.27;;
83034;Laerm;72848;52.216;5.616;2023-09-19T00:49:39;29.00;28.13;35.94;;
83034;Laerm;72848;52.216;5.616;2023-09-19T00:52:05;29.06;28.13;39.68;;
83034;Laerm;72848;52.216;5.616;2023-09-19T00:54:33;29.20;28.22;35.92;;
83034;Laerm;72848;52.216;5.616;2023-09-19T00:57:00;29.27;28.16;38.01;;
83034;Laerm;72848;52.216;5.616;2023-09-19T00:59:26;29.10;28.22;38.52;;
83034;Laerm;72848;52.216;5.616;2023-09-19T01:01:52;29.03;28.13;38.19;;
83034;Laerm;72848;52.216;5.616;2023-09-19T01:04:18;28.97;28.07;35.08;;
83034;Laerm;72848;52.216;5.616;2023-09-19T01:06:44;29.01;28.14;37.34;;
83034;Laerm;72848;52.216;5.616;2023-09-19T01:09:10;29.10;28.15;38.11;;
83034;Laerm;72848;52.216;5.616;2023-09-19T01:11:40;29.11;28.16;38.27;;
83034;Laerm;72848;52.216;5.616;2023-09-19T01:14:14;28.90;28.04;32.85;;
83034;Laerm;72848;52.216;5.616;2023-09-19T01:16:42;29.08;28.16;38.19;;
83034;Laerm;72848;52.216;5.616;2023-09-19T01:19:20;29.00;28.06;37.14;;
83034;Laerm;72848;52.216;5.616;2023-09-19T01:21:54;29.52;28.18;49.26;;
83034;Laerm;72848;52.216;5.616;2023-09-19T01:24:31;29.17;28.09;41.73;;
83034;Laerm;72848;52.216;5.616;2023-09-19T01:27:12;29.60;28.12;38.76;;
83034;Laerm;72848;52.216;5.616;2023-09-19T01:29:44;28.92;28.10;35.41;;
83034;Laerm;72848;52.216;5.616;2023-09-19T01:32:13;28.93;28.01;32.80;;
83034;Laerm;72848;52.216;5.616;2023-09-19T01:34:44;29.12;28.16;36.00;;
83034;Laerm;72848;52.216;5.616;2023-09-19T01:37:09;28.93;28.12;32.24;;
83034;Laerm;72848;52.216;5.616;2023-09-19T01:39:37;29.02;28.04;32.56;;
83034;Laerm;72848;52.216;5.616;2023-09-19T01:42:04;28.89;28.05;32.89;;
83034;Laerm;72848;52.216;5.616;2023-09-19T01:44:35;29.40;27.96;47.90;;
83034;Laerm;72848;52.216;5.616;2023-09-19T01:47:08;29.26;28.10;34.24;;
83034;Laerm;72848;52.216;5.616;2023-09-19T01:49:42;28.93;28.08;32.15;;
83034;Laerm;72848;52.216;5.616;2023-09-19T01:52:10;28.94;28.08;32.50;;
83034;Laerm;72848;52.216;5.616;2023-09-19T01:54:40;29.03;28.08;37.93;;
83034;Laerm;72848;52.216;5.616;2023-09-19T01:57:09;29.14;28.16;42.83;;
83034;Laerm;72848;52.216;5.616;2023-09-19T01:59:37;29.40;28.26;40.22;;
83034;Laerm;72848;52.216;5.616;2023-09-19T02:02:06;29.09;28.14;40.14;;
83034;Laerm;72848;52.216;5.616;2023-09-19T02:04:33;29.18;28.10;39.21;;
83034;Laerm;72848;52.216;5.616;2023-09-19T02:07:01;29.19;28.15;38.56;;
83034;Laerm;72848;52.216;5.616;2023-09-19T02:09:28;29.05;28.17;31.61;;
83034;Laerm;72848;52.216;5.616;2023-09-19T02:11:53;29.26;28.12;36.07;;
83034;Laerm;72848;52.216;5.616;2023-09-19T02:14:19;29.70;28.25;33.73;;
83034;Laerm;72848;52.216;5.616;2023-09-19T02:16:45;29.33;28.13;39.52;;
83034;Laerm;72848;52.216;5.616;2023-09-19T02:19:11;29.47;28.24;35.43;;
83034;Laerm;72848;52.216;5.616;2023-09-19T02:21:37;29.38;28.13;41.17;;
83034;Laerm;72848;52.216;5.616;2023-09-19T02:24:06;29.04;28.08;35.25;;
83034;Laerm;72848;52.216;5.616;2023-09-19T02:26:32;29.03;28.24;35.73;;
83034;Laerm;72848;52.216;5.616;2023-09-19T02:28:58;29.16;28.25;36.44;;
83034;Laerm;72848;52.216;5.616;2023-09-19T02:31:23;29.70;28.20;42.29;;
83034;Laerm;72848;52.216;5.616;2023-09-19T02:33:49;29.28;28.32;34.70;;
83034;Laerm;72848;52.216;5.616;2023-09-19T02:36:15;29.10;28.14;34.68;;
83034;Laerm;72848;52.216;5.616;2023-09-19T02:38:41;29.83;28.09;34.15;;
83034;Laerm;72848;52.216;5.616;2023-09-19T02:41:09;29.56;28.32;37.67;;
83034;Laerm;72848;52.216;5.616;2023-09-19T02:43:35;29.77;28.29;37.83;;
83034;Laerm;72848;52.216;5.616;2023-09-19T02:46:01;29.16;28.17;34.40;;
83034;Laerm;72848;52.216;5.616;2023-09-19T02:48:27;29.30;28.22;36.88;;
83034;Laerm;72848;52.216;5.616;2023-09-19T02:50:53;29.29;28.16;32.02;;
83034;Laerm;72848;52.216;5.616;2023-09-19T02:53:19;29.51;28.32;36.26;;
83034;Laerm;72848;52.216;5.616;2023-09-19T02:55:45;30.67;28.36;43.65;;
83034;Laerm;72848;52.216;5.616;2023-09-19T02:58:14;33.24;28.34;57.37;;
83034;Laerm;72848;52.216;5.616;2023-09-19T03:00:40;30.18;28.41;39.52;;
83034;Laerm;72848;52.216;5.616;2023-09-19T03:03:06;29.71;28.39;37.04;;
83034;Laerm;72848;52.216;5.616;2023-09-19T03:05:32;29.52;28.13;34.99;;
83034;Laerm;72848;52.216;5.616;2023-09-19T03:07:58;30.00;28.43;41.15;;
83034;Laerm;72848;52.216;5.616;2023-09-19T03:10:24;29.88;28.48;33.46;;
83034;Laerm;72848;52.216;5.616;2023-09-19T03:12:50;29.89;28.50;34.51;;
83034;Laerm;72848;52.216;5.616;2023-09-19T03:15:19;29.34;28.42;34.66;;
83034;Laerm;72848;52.216;5.616;2023-09-19T03:17:45;29.72;28.39;36.41;;
83034;Laerm;72848;52.216;5.616;2023-09-19T03:20:11;29.90;28.62;35.12;;
83034;Laerm;72848;52.216;5.616;2023-09-19T03:22:37;30.04;28.63;36.41;;
83034;Laerm;72848;52.216;5.616;2023-09-19T03:25:03;30.18;28.57;38.41;;
83034;Laerm;72848;52.216;5.616;2023-09-19T03:27:29;30.72;28.84;42.09;;
83034;Laerm;72848;52.216;5.616;2023-09-19T03:29:55;30.25;28.68;39.02;;
83034;Laerm;72848;52.216;5.616;2023-09-19T03:32:23;29.86;28.62;32.34;;
83034;Laerm;72848;52.216;5.616;2023-09-19T03:34:49;30.27;28.65;34.95;;
83034;Laerm;72848;52.216;5.616;2023-09-19T03:37:15;30.41;28.76;33.00;;
83034;Laerm;72848;52.216;5.616;2023-09-19T03:39:41;30.26;28.70;34.14;;
83034;Laerm;72848;52.216;5.616;2023-09-19T03:42:07;30.89;28.93;36.10;;
83034;Laerm;72848;52.216;5.616;2023-09-19T03:44:32;31.09;29.09;35.32;;
83034;Laerm;72848;52.216;5.616;2023-09-19T03:46:58;30.01;28.77;36.82;;
83034;Laerm;72848;52.216;5.616;2023-09-19T03:49:27;30.34;28.81;34.99;;
83034;Laerm;72848;52.216;5.616;2023-09-19T03:51:53;30.56;28.91;35.93;;
83034;Laerm;72848;52.216;5.616;2023-09-19T03:54:19;31.11;29.17;39.45;;
83034;Laerm;72848;52.216;5.616;2023-09-19T03:56:44;31.07;28.86;42.56;;
83034;Laerm;72848;52.216;5.616;2023-09-19T03:59:10;31.13;29.05;42.48;;
83034;Laerm;72848;52.216;5.616;2023-09-19T04:01:36;31.62;29.02;54.64;;
83034;Laerm;72848;52.216;5.616;2023-09-19T04:04:02;30.55;28.93;33.06;;
83034;Laerm;72848;52.216;5.616;2023-09-19T04:06:30;31.08;29.14;38.16;;
83034;Laerm;72848;52.216;5.616;2023-09-19T04:08:57;30.62;28.86;36.45;;
83034;Laerm;72848;52.216;5.616;2023-09-19T04:11:22;30.79;28.98;35.00;;
83034;Laerm;72848;52.216;5.616;2023-09-19T04:13:48;30.42;29.12;34.52;;
83034;Laerm;72848;52.216;5.616;2023-09-19T04:16:14;31.12;29.65;35.38;;
83034;Laerm;72848;52.216;5.616;2023-09-19T04:18:40;30.91;29.31;34.23;;
83034;Laerm;72848;52.216;5.616;2023-09-19T04:21:06;30.70;29.11;33.51;;
83034;Laerm;72848;52.216;5.616;2023-09-19T04:23:34;31.27;29.50;36.23;;
83034;Laerm;72848;52.216;5.616;2023-09-19T04:26:00;31.08;29.42;42.47;;
83034;Laerm;72848;52.216;5.616;2023-09-19T04:28:26;31.11;29.12;35.39;;
83034;Laerm;72848;52.216;5.616;2023-09-19T04:30:52;30.80;29.31;35.65;;
83034;Laerm;72848;52.216;5.616;2023-09-19T04:33:18;30.81;29.02;44.11;;
83034;Laerm;72848;52.216;5.616;2023-09-19T04:35:43;31.44;29.46;37.48;;
83034;Laerm;72848;52.216;5.616;2023-09-19T04:38:09;32.06;29.44;47.50;;
83034;Laerm;72848;52.216;5.616;2023-09-19T04:40:38;31.13;29.26;34.24;;
83034;Laerm;72848;52.216;5.616;2023-09-19T04:43:04;31.19;29.32;33.78;;
83034;Laerm;72848;52.216;5.616;2023-09-19T04:45:30;32.07;29.61;49.13;;
83034;Laerm;72848;52.216;5.616;2023-09-19T04:47:55;31.94;29.69;35.43;;
83034;Laerm;72848;52.216;5.616;2023-09-19T04:50:21;32.15;30.09;37.05;;
83034;Laerm;72848;52.216;5.616;2023-09-19T04:52:49;32.18;29.45;49.55;;
83034;Laerm;72848;52.216;5.616;2023-09-19T04:55:15;31.82;29.12;41.89;;
83034;Laerm;72848;52.216;5.616;2023-09-19T04:57:44;31.67;29.03;41.04;;
83034;Laerm;72848;52.216;5.616;2023-09-19T05:00:10;31.58;29.83;36.88;;
83034;Laerm;72848;52.216;5.616;2023-09-19T05:02:36;31.51;29.39;38.00;;
83034;Laerm;72848;52.216;5.616;2023-09-19T05:05:03;32.27;29.94;37.58;;
83034;Laerm;72848;52.216;5.616;2023-09-19T05:07:28;32.15;30.10;37.03;;
83034;Laerm;72848;52.216;5.616;2023-09-19T05:09:54;31.93;30.14;37.63;;
83034;Laerm;72848;52.216;5.616;2023-09-19T05:12:20;31.76;30.11;34.54;;
83034;Laerm;72848;52.216;5.616;2023-09-19T05:14:49;32.05;29.57;47.87;;
83034;Laerm;72848;52.216;5.616;2023-09-19T05:17:15;31.40;29.46;34.90;;
83034;Laerm;72848;52.216;5.616;2023-09-19T05:19:41;31.79;30.12;34.36;;
83034;Laerm;72848;52.216;5.616;2023-09-19T05:22:06;32.06;29.80;39.06;;
83034;Laerm;72848;52.216;5.616;2023-09-19T05:24:32;31.22;29.45;41.64;;
83034;Laerm;72848;52.216;5.616;2023-09-19T05:26:58;32.34;30.30;36.44;;
83034;Laerm;72848;52.216;5.616;2023-09-19T05:29:24;31.26;29.65;34.83;;
83034;Laerm;72848;52.216;5.616;2023-09-19T05:31:53;36.52;29.54;60.61;;
83034;Laerm;72848;52.216;5.616;2023-09-19T05:34:19;45.78;30.11;74.53;;
83034;Laerm;72848;52.216;5.616;2023-09-19T05:36:44;49.14;29.97;75.29;;
83034;Laerm;72848;52.216;5.616;2023-09-19T05:39:10;32.06;30.13;41.27;;
83034;Laerm;72848;52.216;5.616;2023-09-19T05:41:36;49.75;30.38;75.65;;
83034;Laerm;72848;52.216;5.616;2023-09-19T05:44:02;37.08;30.59;60.17;;
83034;Laerm;72848;52.216;5.616;2023-09-19T05:46:28;40.37;30.59;69.41;;
83034;Laerm;72848;52.216;5.616;2023-09-19T05:48:57;49.26;30.64;75.39;;
83034;Laerm;72848;52.216;5.616;2023-09-19T05:51:23;34.59;30.57;57.96;;
83034;Laerm;72848;52.216;5.616;2023-09-19T05:56:29;32.56;30.45;35.97;;
83034;Laerm;72848;52.216;5.616;2023-09-19T05:58:55;31.75;30.18;38.41;;
83034;Laerm;72848;52.216;5.616;2023-09-19T06:01:21;33.02;30.97;40.81;;
83034;Laerm;72848;52.216;5.616;2023-09-19T06:03:47;32.41;30.41;34.95;;
83034;Laerm;72848;52.216;5.616;2023-09-19T06:06:16;32.70;30.45;36.41;;
83034;Laerm;72848;52.216;5.616;2023-09-19T06:08:41;33.25;30.51;51.67;;
83034;Laerm;72848;52.216;5.616;2023-09-19T06:11:07;32.20;30.17;37.84;;
83034;Laerm;72848;52.216;5.616;2023-09-19T06:13:33;32.99;30.25;49.97;;
83034;Laerm;72848;52.216;5.616;2023-09-19T06:15:59;33.03;30.31;39.39;;
83034;Laerm;72848;52.216;5.616;2023-09-19T06:18:25;34.70;30.58;60.11;;
83034;Laerm;72848;52.216;5.616;2023-09-19T06:20:51;33.17;31.30;39.46;;
83034;Laerm;72848;52.216;5.616;2023-09-19T06:23:20;32.56;30.36;36.31;;
83034;Laerm;72848;52.216;5.616;2023-09-19T06:25:46;32.58;30.69;35.71;;
83034;Laerm;72848;52.216;5.616;2023-09-19T06:28:12;33.27;30.99;38.18;;
83034;Laerm;72848;52.216;5.616;2023-09-19T06:30:38;32.28;30.38;34.87;;
83034;Laerm;72848;52.216;5.616;2023-09-19T06:33:04;32.45;30.36;38.97;;
83034;Laerm;72848;52.216;5.616;2023-09-19T06:35:31;32.12;30.10;45.35;;
83034;Laerm;72848;52.216;5.616;2023-09-19T06:37:57;32.31;30.29;34.39;;
83034;Laerm;72848;52.216;5.616;2023-09-19T06:40:26;33.28;30.69;39.20;;
83034;Laerm;72848;52.216;5.616;2023-09-19T06:42:52;32.81;30.44;49.03;;
83034;Laerm;72848;52.216;5.616;2023-09-19T06:45:18;33.14;30.34;38.11;;
83034;Laerm;72848;52.216;5.616;2023-09-19T06:47:44;32.93;30.72;41.48;;
83034;Laerm;72848;52.216;5.616;2023-09-19T06:50:09;33.96;31.08;50.72;;
83034;Laerm;72848;52.216;5.616;2023-09-19T06:52:35;32.47;30.63;43.84;;
83034;Laerm;72848;52.216;5.616;2023-09-19T06:55:01;32.60;30.44;39.73;;
83034;Laerm;72848;52.216;5.616;2023-09-19T06:57:30;33.04;30.39;40.37;;
83034;Laerm;72848;52.216;5.616;2023-09-19T06:59:57;32.94;30.51;47.97;;
83034;Laerm;72848;52.216;5.616;2023-09-19T07:02:24;32.00;30.35;34.93;;
83034;Laerm;72848;52.216;5.616;2023-09-19T07:04:51;31.94;30.26;36.40;;
83034;Laerm;72848;52.216;5.616;2023-09-19T07:07:23;33.34;30.03;56.09;;
83034;Laerm;72848;52.216;5.616;2023-09-19T07:09:53;39.47;31.89;42.18;;
83034;Laerm;72848;52.216;5.616;2023-09-19T07:12:19;38.50;36.88;50.38;;
83034;Laerm;72848;52.216;5.616;2023-09-19T07:14:47;38.48;36.66;42.55;;
83034;Laerm;72848;52.216;5.616;2023-09-19T07:17:13;38.96;37.12;40.71;;
83034;Laerm;72848;52.216;5.616;2023-09-19T07:19:39;38.66;36.65;40.42;;
83034;Laerm;72848;52.216;5.616;2023-09-19T07:22:04;32.54;30.22;39.23;;
83034;Laerm;72848;52.216;5.616;2023-09-19T07:24:30;33.88;31.52;41.14;;
83034;Laerm;72848;52.216;5.616;2023-09-19T07:26:56;33.75;30.93;37.31;;
83034;Laerm;72848;52.216;5.616;2023-09-19T07:29:22;32.68;30.10;40.05;;
83034;Laerm;72848;52.216;5.616;2023-09-19T07:31:51;32.18;30.35;35.34;;
83034;Laerm;72848;52.216;5.616;2023-09-19T07:34:16;32.77;30.43;36.26;;
83034;Laerm;72848;52.216;5.616;2023-09-19T07:36:42;32.91;30.77;44.40;;
83034;Laerm;72848;52.216;5.616;2023-09-19T07:39:08;31.98;29.96;37.58;;
83034;Laerm;72848;52.216;5.616;2023-09-19T07:41:35;37.30;30.54;63.07;;
83034;Laerm;72848;52.216;5.616;2023-09-19T07:44:01;34.43;31.05;48.27;;
83034;Laerm;72848;52.216;5.616;2023-09-19T07:46:27;42.62;31.11;54.71;;
83034;Laerm;72848;52.216;5.616;2023-09-19T07:48:55;32.07;30.53;35.47;;
83034;Laerm;72848;52.216;5.616;2023-09-19T07:51:21;32.74;30.53;44.62;;
83034;Laerm;72848;52.216;5.616;2023-09-19T07:53:47;32.88;30.29;39.54;;
83034;Laerm;72848;52.216;5.616;2023-09-19T07:56:13;33.21;30.24;39.98;;
83034;Laerm;72848;52.216;5.616;2023-09-19T07:58:39;31.75;29.97;40.67;;
83034;Laerm;72848;52.216;5.616;2023-09-19T08:01:05;32.63;30.42;35.74;;
83034;Laerm;72848;52.216;5.616;2023-09-19T08:03:31;32.76;30.42;38.18;;
83034;Laerm;72848;52.216;5.616;2023-09-19T08:06:00;47.48;31.04;68.75;;
83034;Laerm;72848;52.216;5.616;2023-09-19T08:08:26;41.86;37.08;58.44;;
83034;Laerm;72848;52.216;5.616;2023-09-19T08:10:52;46.64;36.37;73.65;;
83034;Laerm;72848;52.216;5.616;2023-09-19T08:13:18;49.75;36.50;75.06;;
83034;Laerm;72848;52.216;5.616;2023-09-19T08:15:44;39.90;36.27;47.86;;
83034;Laerm;72848;52.216;5.616;2023-09-19T08:18:11;39.17;35.79;43.74;;
83034;Laerm;72848;52.216;5.616;2023-09-19T08:20:37;39.49;35.14;44.49;;
83034;Laerm;72848;52.216;5.616;2023-09-19T08:23:05;44.38;38.52;53.65;;
83034;Laerm;72848;52.216;5.616;2023-09-19T08:25:31;47.12;40.43;55.89;;
83034;Laerm;72848;52.216;5.616;2023-09-19T08:27:57;45.48;37.62;53.27;;
83034;Laerm;72848;52.216;5.616;2023-09-19T08:30:23;40.96;36.79;46.56;;
83034;Laerm;72848;52.216;5.616;2023-09-19T08:32:49;43.27;35.80;55.24;;
83034;Laerm;72848;52.216;5.616;2023-09-19T08:35:15;48.97;37.62;77.54;;
83034;Laerm;72848;52.216;5.616;2023-09-19T08:37:41;45.86;37.61;53.00;;
83034;Laerm;72848;52.216;5.616;2023-09-19T08:40:11;45.79;39.18;58.94;;
83034;Laerm;72848;52.216;5.616;2023-09-19T08:42:49;44.42;35.46;59.54;;
83034;Laerm;72848;52.216;5.616;2023-09-19T08:45:15;40.78;35.74;47.44;;
83034;Laerm;72848;52.216;5.616;2023-09-19T08:47:43;44.07;39.09;58.80;;
83034;Laerm;72848;52.216;5.616;2023-09-19T08:50:14;42.17;36.44;47.36;;
83034;Laerm;72848;52.216;5.616;2023-09-19T08:52:43;42.43;35.94;66.24;;
83034;Laerm;72848;52.216;5.616;2023-09-19T08:55:12;55.98;37.14;81.93;;
83034;Laerm;72848;52.216;5.616;2023-09-19T08:57:38;53.21;36.91;77.99;;
83034;Laerm;72848;52.216;5.616;2023-09-19T09:00:07;46.66;37.43;68.52;;
83034;Laerm;72848;52.216;5.616;2023-09-19T09:02:33;50.32;37.65;77.47;;
83034;Laerm;72848;52.216;5.616;2023-09-19T09:04:59;48.48;36.14;70.39;;
83034;Laerm;72848;52.216;5.616;2023-09-19T09:07:25;49.45;36.61;73.46;;
83034;Laerm;72848;52.216;5.616;2023-09-19T09:09:52;56.69;38.65;74.78;;
83034;Laerm;72848;52.216;5.616;2023-09-19T09:12:20;54.14;37.50;75.04;;
83034;Laerm;72848;52.216;5.616;2023-09-19T09:14:47;54.73;37.14;75.87;;
83034;Laerm;72848;52.216;5.616;2023-09-19T09:17:13;60.25;39.53;88.59;;
83034;Laerm;72848;52.216;5.616;2023-09-19T09:19:38;63.71;36.27;84.24;;
83034;Laerm;72848;52.216;5.616;2023-09-19T09:22:08;57.64;35.86;76.79;;
83034;Laerm;72848;52.216;5.616;2023-09-19T09:24:33;55.93;37.44;80.08;;
83034;Laerm;72848;52.216;5.616;2023-09-19T09:27:02;59.67;37.86;79.74;;
83034;Laerm;72848;52.216;5.616;2023-09-19T09:29:44;60.22;37.85;82.03;;
83034;Laerm;72848;52.216;5.616;2023-09-19T09:32:19;50.96;37.86;72.16;;
83034;Laerm;72848;52.216;5.616;2023-09-19T09:34:45;46.56;39.19;62.08;;
83034;Laerm;72848;52.216;5.616;2023-09-19T09:37:12;50.62;37.94;67.73;;
83034;Laerm;72848;52.216;5.616;2023-09-19T09:39:39;52.82;36.61;77.30;;
83034;Laerm;72848;52.216;5.616;2023-09-19T09:42:04;60.93;36.91;86.85;;
83034;Laerm;72848;52.216;5.616;2023-09-19T09:44:30;54.07;38.16;78.28;;
83034;Laerm;72848;52.216;5.616;2023-09-19T09:46:59;53.30;37.27;74.66;;
83034;Laerm;72848;52.216;5.616;2023-09-19T09:49:25;71.90;36.08;98.60;;
83034;Laerm;72848;52.216;5.616;2023-09-19T09:51:58;46.86;37.99;57.06;;
83034;Laerm;72848;52.216;5.616;2023-09-19T09:54:25;64.81;37.49;88.48;;
83034;Laerm;72848;52.216;5.616;2023-09-19T09:56:54;63.84;38.25;91.92;;
83034;Laerm;72848;52.216;5.616;2023-09-19T09:59:20;50.86;38.42;72.60;;
83034;Laerm;72848;52.216;5.616;2023-09-19T10:01:47;54.81;37.77;74.86;;
83034;Laerm;72848;52.216;5.616;2023-09-19T10:04:26;56.42;37.27;78.33;;
83034;Laerm;72848;52.216;5.616;2023-09-19T10:06:52;61.20;37.24;85.88;;
83034;Laerm;72848;52.216;5.616;2023-09-19T10:09:18;58.68;38.04;88.38;;
83034;Laerm;72848;52.216;5.616;2023-09-19T10:11:44;54.87;36.59;76.33;;
83034;Laerm;72848;52.216;5.616;2023-09-19T10:14:11;53.46;37.41;74.87;;
83034;Laerm;72848;52.216;5.616;2023-09-19T10:16:39;45.78;40.30;57.48;;
83034;Laerm;72848;52.216;5.616;2023-09-19T10:19:06;46.60;40.61;64.07;;
83034;Laerm;72848;52.216;5.616;2023-09-19T10:21:35;48.39;40.74;57.12;;
83034;Laerm;72848;52.216;5.616;2023-09-19T10:24:01;45.34;37.44;61.73;;
83034;Laerm;72848;52.216;5.616;2023-09-19T10:26:29;43.38;37.90;50.20;;
83034;Laerm;72848;52.216;5.616;2023-09-19T10:28:55;44.86;37.07;54.54;;
83034;Laerm;72848;52.216;5.616;2023-09-19T10:31:22;43.22;38.00;54.99;;
83034;Laerm;72848;52.216;5.616;2023-09-19T10:33:49;45.16;39.07;58.38;;
83034;Laerm;72848;52.216;5.616;2023-09-19T10:36:15;47.30;40.85;63.41;;
83034;Laerm;72848;52.216;5.616;2023-09-19T10:38:45;41.88;38.27;48.57;;
83034;Laerm;72848;52.216;5.616;2023-09-19T10:41:11;45.94;38.07;55.53;;
83034;Laerm;72848;52.216;5.616;2023-09-19T10:43:39;42.96;38.23;50.10;;
83034;Laerm;72848;52.216;5.616;2023-09-19T10:46:07;45.51;36.85;55.58;;
83034;Laerm;72848;52.216;5.616;2023-09-19T10:48:33;54.56;40.66;64.31;;
83034;Laerm;72848;52.216;5.616;2023-09-19T10:51:02;42.59;37.08;52.56;;
83034;Laerm;72848;52.216;5.616;2023-09-19T10:53:31;43.98;37.42;52.34;;
83034;Laerm;72848;52.216;5.616;2023-09-19T10:56:07;44.13;37.83;55.42;;
83034;Laerm;72848;52.216;5.616;2023-09-19T10:58:34;44.74;38.38;52.84;;
83034;Laerm;72848;52.216;5.616;2023-09-19T11:01:00;46.37;37.31;65.32;;
83034;Laerm;72848;52.216;5.616;2023-09-19T11:03:26;45.36;38.99;56.12;;
83034;Laerm;72848;52.216;5.616;2023-09-19T11:06:02;43.51;35.93;56.19;;
83034;Laerm;72848;52.216;5.616;2023-09-19T11:08:28;49.89;40.37;65.27;;
83034;Laerm;72848;52.216;5.616;2023-09-19T11:10:54;46.52;39.44;68.88;;
83034;Laerm;72848;52.216;5.616;2023-09-19T11:13:31;46.35;39.11;55.78;;
83034;Laerm;72848;52.216;5.616;2023-09-19T11:26:40;43.78;37.20;57.55;;
83034;Laerm;72848;52.216;5.616;2023-09-19T11:31:49;55.88;38.72;82.26;;
83034;Laerm;72848;52.216;5.616;2023-09-19T11:36:55;58.29;41.13;83.02;;
83034;Laerm;72848;52.216;5.616;2023-09-19T11:39:24;61.78;37.23;88.69;;
83034;Laerm;72848;52.216;5.616;2023-09-19T11:41:51;60.38;37.39;82.79;;
83034;Laerm;72848;52.216;5.616;2023-09-19T11:47:00;57.40;38.25;79.88;;
83034;Laerm;72848;52.216;5.616;2023-09-19T11:49:27;55.68;39.00;66.63;;
83034;Laerm;72848;52.216;5.616;2023-09-19T11:51:54;54.78;40.62;73.34;;
83034;Laerm;72848;52.216;5.616;2023-09-19T11:54:20;53.20;39.92;63.23;;
83034;Laerm;72848;52.216;5.616;2023-09-19T11:56:46;56.16;41.40;78.02;;
83034;Laerm;72848;52.216;5.616;2023-09-19T11:59:13;57.91;39.19;70.10;;
83034;Laerm;72848;52.216;5.616;2023-09-19T12:01:50;64.82;38.73;89.29;;
83034;Laerm;72848;52.216;5.616;2023-09-19T12:04:19;56.85;38.68;73.60;;
83034;Laerm;72848;52.216;5.616;2023-09-19T12:06:55;61.43;38.44;85.10;;
83034;Laerm;72848;52.216;5.616;2023-09-19T12:09:21;67.90;38.20;93.85;;
83034;Laerm;72848;52.216;5.616;2023-09-19T12:11:47;64.17;40.29;91.54;;
83034;Laerm;72848;52.216;5.616;2023-09-19T12:14:21;59.64;39.99;74.91;;
83034;Laerm;72848;52.216;5.616;2023-09-19T12:16:50;68.13;41.37;90.16;;
83034;Laerm;72848;52.216;5.616;2023-09-19T12:19:22;51.55;37.45;69.68;;
83034;Laerm;72848;52.216;5.616;2023-09-19T12:21:58;50.46;40.59;65.08;;
83034;Laerm;72848;52.216;5.616;2023-09-19T12:24:25;60.63;38.16;85.47;;
83034;Laerm;72848;52.216;5.616;2023-09-19T12:26:51;47.67;39.78;68.65;;
83034;Laerm;72848;52.216;5.616;2023-09-19T12:29:18;43.97;38.61;63.87;;
83034;Laerm;72848;52.216;5.616;2023-09-19T12:31:47;44.96;37.84;64.23;;
83034;Laerm;72848;52.216;5.616;2023-09-19T12:34:15;57.82;39.21;83.43;;
83034;Laerm;72848;52.216;5.616;2023-09-19T12:36:44;52.26;40.51;75.38;;
83034;Laerm;72848;52.216;5.616;2023-09-19T12:39:10;51.96;41.16;80.58;;
83034;Laerm;72848;52.216;5.616;2023-09-19T12:41:36;52.94;39.41;75.91;;
83034;Laerm;72848;52.216;5.616;2023-09-19T12:44:03;58.36;41.24;80.66;;
83034;Laerm;72848;52.216;5.616;2023-09-19T12:46:29;51.03;42.49;61.97;;
83034;Laerm;72848;52.216;5.616;2023-09-19T12:51:35;60.46;40.81;80.46;;
83034;Laerm;72848;52.216;5.616;2023-09-19T12:54:04;59.80;44.25;83.58;;
83034;Laerm;72848;52.216;5.616;2023-09-19T12:56:30;55.03;40.62;81.06;;
83034;Laerm;72848;52.216;5.616;2023-09-19T12:59:04;45.82;38.29;56.32;;
83034;Laerm;72848;52.216;5.616;2023-09-19T13:01:30;52.04;40.81;75.91;;
83034;Laerm;72848;52.216;5.616;2023-09-19T13:06:37;44.96;39.86;59.14;;
83034;Laerm;72848;52.216;5.616;2023-09-19T13:09:10;52.21;40.74;70.25;;
83034;Laerm;72848;52.216;5.616;2023-09-19T13:11:36;49.95;43.62;70.18;;
83034;Laerm;72848;52.216;5.616;2023-09-19T13:14:13;44.40;38.43;51.27;;
83034;Laerm;72848;52.216;5.616;2023-09-19T13:16:52;44.83;38.35;57.88;;
83034;Laerm;72848;52.216;5.616;2023-09-19T13:21:58;53.92;44.81;72.08;;
83034;Laerm;72848;52.216;5.616;2023-09-19T13:24:27;42.71;37.62;51.10;;
83034;Laerm;72848;52.216;5.616;2023-09-19T13:26:53;47.62;37.62;71.65;;
83034;Laerm;72848;52.216;5.616;2023-09-19T13:29:19;46.17;39.95;57.32;;
83034;Laerm;72848;52.216;5.616;2023-09-19T13:31:47;44.82;39.94;50.41;;
83034;Laerm;72848;52.216;5.616;2023-09-19T13:34:13;44.45;39.28;57.85;;
83034;Laerm;72848;52.216;5.616;2023-09-19T13:36:39;47.22;32.24;71.10;;
83034;Laerm;72848;52.216;5.616;2023-09-19T13:39:05;40.30;32.75;61.98;;
83034;Laerm;72848;52.216;5.616;2023-09-19T13:41:33;45.04;31.08;67.96;;
83034;Laerm;72848;52.216;5.616;2023-09-19T13:43:59;37.92;31.03;60.31;;
83034;Laerm;72848;52.216;5.616;2023-09-19T13:46:25;35.46;31.48;56.36;;
83034;Laerm;72848;52.216;5.616;2023-09-19T13:48:51;34.58;31.36;42.57;;
83034;Laerm;72848;52.216;5.616;2023-09-19T13:51:17;37.47;32.61;47.85;;
83034;Laerm;72848;52.216;5.616;2023-09-19T13:53:43;36.15;31.03;44.52;;
83034;Laerm;72848;52.216;5.616;2023-09-19T13:56:09;36.03;31.29;48.06;;
83034;Laerm;72848;52.216;5.616;2023-09-19T13:58:37;36.10;31.88;46.83;;
83034;Laerm;72848;52.216;5.616;2023-09-19T14:01:03;39.74;33.74;50.11;;
83034;Laerm;72848;52.216;5.616;2023-09-19T14:03:29;38.08;32.56;48.64;;
83034;Laerm;72848;52.216;5.616;2023-09-19T14:05:55;36.69;32.23;45.85;;
83034;Laerm;72848;52.216;5.616;2023-09-19T14:08:20;37.05;32.11;46.59;;
83034;Laerm;72848;52.216;5.616;2023-09-19T14:10:46;44.25;32.87;73.05;;
83034;Laerm;72848;52.216;5.616;2023-09-19T14:13:12;37.48;31.61;47.03;;